sensor_id;sensor_type;location;lat;lon;timestamp;pressure;altitude;pressure_sealevel;temperature;humidity
70053;BME280;57398;52.032;4.376;2023-04-09T00:00:28;104328.94;;;5.81;nan
70053;BME280;57398;52.032;4.376;2023-04-09T00:03:17;104331.63;;;5.79;nan
70053;BME280;57398;52.032;4.376;2023-04-09T00:06:06;104332.66;;;5.77;nan
70053;BME280;57398;52.032;4.376;2023-04-09T00:08:54;104335.13;;;5.78;nan
70053;BME280;57398;52.032;4.376;2023-04-09T00:11:42;104323.94;;;5.65;nan
70053;BME280;57398;52.032;4.376;2023-04-09T00:14:31;104335.09;;;5.65;nan
70053;BME280;57398;52.032;4.376;2023-04-09T00:17:19;104343.75;;;5.64;nan
70053;BME280;57398;52.032;4.376;2023-04-09T00:20:08;104344.00;;;5.74;nan
70053;BME280;57398;52.032;4.376;2023-04-09T00:22:56;104369.31;;;5.82;nan
70053;BME280;57398;52.032;4.376;2023-04-09T00:25:44;104383.56;;;5.87;nan
70053;BME280;57398;52.032;4.376;2023-04-09T00:28:32;104404.09;;;5.89;nan
70053;BME280;57398;52.032;4.376;2023-04-09T00:31:23;104405.13;;;5.86;nan
70053;BME280;57398;52.032;4.376;2023-04-09T00:34:11;104409.66;;;5.83;nan
70053;BME280;57398;52.032;4.376;2023-04-09T00:36:59;104425.44;;;5.78;nan
70053;BME280;57398;52.032;4.376;2023-04-09T00:39:47;104424.91;;;5.73;nan
70053;BME280;57398;52.032;4.376;2023-04-09T00:42:36;104426.22;;;5.66;nan
70053;BME280;57398;52.032;4.376;2023-04-09T00:45:24;104433.00;;;5.67;nan
70053;BME280;57398;52.032;4.376;2023-04-09T00:48:14;104450.16;;;5.68;nan
70053;BME280;57398;52.032;4.376;2023-04-09T00:51:02;104461.38;;;5.67;nan
70053;BME280;57398;52.032;4.376;2023-04-09T00:53:52;104460.13;;;5.60;nan
70053;BME280;57398;52.032;4.376;2023-04-09T00:56:41;104462.78;;;5.58;nan
70053;BME280;57398;52.032;4.376;2023-04-09T00:59:29;104463.91;;;5.54;nan
70053;BME280;57398;52.032;4.376;2023-04-09T01:02:17;104466.06;;;5.48;nan
70053;BME280;57398;52.032;4.376;2023-04-09T01:05:07;104456.94;;;5.42;nan
70053;BME280;57398;52.032;4.376;2023-04-09T01:08:00;104457.13;;;5.39;nan
70053;BME280;57398;52.032;4.376;2023-04-09T01:10:53;104456.75;;;5.31;nan
70053;BME280;57398;52.032;4.376;2023-04-09T01:13:49;104440.84;;;5.24;nan
70053;BME280;57398;52.032;4.376;2023-04-09T01:16:44;104435.97;;;5.19;nan
70053;BME280;57398;52.032;4.376;2023-04-09T01:19:41;104433.38;;;5.19;nan
70053;BME280;57398;52.032;4.376;2023-04-09T01:22:41;104435.41;;;5.14;nan
70053;BME280;57398;52.032;4.376;2023-04-09T01:25:43;104438.81;;;5.15;nan
70053;BME280;57398;52.032;4.376;2023-04-09T01:28:36;104457.06;;;5.12;nan
70053;BME280;57398;52.032;4.376;2023-04-09T01:31:29;104455.38;;;5.11;nan
70053;BME280;57398;52.032;4.376;2023-04-09T01:34:19;104451.44;;;5.05;nan
70053;BME280;57398;52.032;4.376;2023-04-09T01:37:08;104443.91;;;5.02;nan
70053;BME280;57398;52.032;4.376;2023-04-09T01:39:56;104446.38;;;5.03;nan
70053;BME280;57398;52.032;4.376;2023-04-09T01:42:46;104444.72;;;5.02;nan
70053;BME280;57398;52.032;4.376;2023-04-09T01:45:37;104449.13;;;5.00;nan
70053;BME280;57398;52.032;4.376;2023-04-09T01:48:26;104444.91;;;4.99;nan
70053;BME280;57398;52.032;4.376;2023-04-09T01:51:14;104449.59;;;4.93;nan
70053;BME280;57398;52.032;4.376;2023-04-09T01:54:03;104451.25;;;4.94;nan
70053;BME280;57398;52.032;4.376;2023-04-09T01:56:52;104441.56;;;4.83;nan
70053;BME280;57398;52.032;4.376;2023-04-09T01:59:40;104447.47;;;4.85;nan
70053;BME280;57398;52.032;4.376;2023-04-09T02:02:34;104442.59;;;4.80;nan
70053;BME280;57398;52.032;4.376;2023-04-09T02:05:24;104440.13;;;4.79;nan
70053;BME280;57398;52.032;4.376;2023-04-09T02:08:18;104458.03;;;4.80;nan
70053;BME280;57398;52.032;4.376;2023-04-09T02:11:08;104467.44;;;4.96;nan
70053;BME280;57398;52.032;4.376;2023-04-09T02:13:58;104478.50;;;4.98;nan
70053;BME280;57398;52.032;4.376;2023-04-09T02:16:47;104480.69;;;4.90;nan
70053;BME280;57398;52.032;4.376;2023-04-09T02:19:41;104482.06;;;4.81;nan
70053;BME280;57398;52.032;4.376;2023-04-09T02:22:29;104478.03;;;4.77;nan
70053;BME280;57398;52.032;4.376;2023-04-09T02:25:17;104494.63;;;4.71;nan
70053;BME280;57398;52.032;4.376;2023-04-09T02:28:06;104494.09;;;4.66;nan
70053;BME280;57398;52.032;4.376;2023-04-09T02:30:54;104500.25;;;4.64;nan
70053;BME280;57398;52.032;4.376;2023-04-09T02:33:42;104507.31;;;4.60;nan
70053;BME280;57398;52.032;4.376;2023-04-09T02:36:32;104519.44;;;4.58;nan
70053;BME280;57398;52.032;4.376;2023-04-09T02:39:20;104539.78;;;4.62;nan
70053;BME280;57398;52.032;4.376;2023-04-09T02:42:08;104562.22;;;4.60;nan
70053;BME280;57398;52.032;4.376;2023-04-09T02:44:56;104565.47;;;4.48;nan
70053;BME280;57398;52.032;4.376;2023-04-09T02:47:44;104575.03;;;4.46;nan
70053;BME280;57398;52.032;4.376;2023-04-09T02:50:32;104572.72;;;4.41;nan
70053;BME280;57398;52.032;4.376;2023-04-09T02:53:21;104568.75;;;4.36;nan
70053;BME280;57398;52.032;4.376;2023-04-09T02:56:09;104566.56;;;4.28;nan
70053;BME280;57398;52.032;4.376;2023-04-09T02:58:57;104562.19;;;4.30;nan
70053;BME280;57398;52.032;4.376;2023-04-09T03:01:45;104550.81;;;4.18;nan
70053;BME280;57398;52.032;4.376;2023-04-09T03:04:34;104541.69;;;4.13;nan
70053;BME280;57398;52.032;4.376;2023-04-09T03:07:22;104539.13;;;4.13;nan
70053;BME280;57398;52.032;4.376;2023-04-09T03:10:12;104534.06;;;4.11;nan
70053;BME280;57398;52.032;4.376;2023-04-09T03:13:00;104524.03;;;4.07;nan
70053;BME280;57398;52.032;4.376;2023-04-09T03:15:50;104517.13;;;4.07;nan
70053;BME280;57398;52.032;4.376;2023-04-09T03:18:38;104514.28;;;4.12;nan
70053;BME280;57398;52.032;4.376;2023-04-09T03:21:26;104510.00;;;4.12;nan
70053;BME280;57398;52.032;4.376;2023-04-09T03:24:15;104490.75;;;4.04;nan
70053;BME280;57398;52.032;4.376;2023-04-09T03:27:04;104492.06;;;4.11;nan
70053;BME280;57398;52.032;4.376;2023-04-09T03:29:54;104483.16;;;4.16;nan
70053;BME280;57398;52.032;4.376;2023-04-09T03:32:42;104476.88;;;4.22;nan
70053;BME280;57398;52.032;4.376;2023-04-09T03:35:30;104486.72;;;4.30;nan
70053;BME280;57398;52.032;4.376;2023-04-09T03:38:18;104484.81;;;4.33;nan
70053;BME280;57398;52.032;4.376;2023-04-09T03:41:07;104482.63;;;4.41;nan
70053;BME280;57398;52.032;4.376;2023-04-09T03:43:56;104474.63;;;4.46;nan
70053;BME280;57398;52.032;4.376;2023-04-09T03:46:44;104491.13;;;4.58;nan
70053;BME280;57398;52.032;4.376;2023-04-09T03:55:09;104537.59;;;4.71;nan
70053;BME280;57398;52.032;4.376;2023-04-09T03:57:57;69173.44;;;-144.51;100.00
70053;BME280;57398;52.032;4.376;2023-04-09T04:00:46;69173.44;;;-144.51;100.00
70053;BME280;57398;52.032;4.376;2023-04-09T04:03:35;104551.94;;;5.05;nan
70053;BME280;57398;52.032;4.376;2023-04-09T04:06:23;104538.31;;;5.17;nan
70053;BME280;57398;52.032;4.376;2023-04-09T04:09:11;104527.72;;;5.22;nan
70053;BME280;57398;52.032;4.376;2023-04-09T04:12:00;104551.25;;;5.32;nan
70053;BME280;57398;52.032;4.376;2023-04-09T04:14:49;104559.25;;;5.41;nan
70053;BME280;57398;52.032;4.376;2023-04-09T04:17:38;104558.22;;;5.44;nan
70053;BME280;57398;52.032;4.376;2023-04-09T04:20:26;104575.81;;;5.52;nan
70053;BME280;57398;52.032;4.376;2023-04-09T04:23:14;104585.97;;;5.55;nan
70053;BME280;57398;52.032;4.376;2023-04-09T04:26:06;104585.69;;;5.59;nan
70053;BME280;57398;52.032;4.376;2023-04-09T04:28:55;104658.09;;;5.71;nan
70053;BME280;57398;52.032;4.376;2023-04-09T04:31:43;104657.44;;;5.81;nan
70053;BME280;57398;52.032;4.376;2023-04-09T04:34:33;104660.66;;;5.85;nan
70053;BME280;57398;52.032;4.376;2023-04-09T04:37:21;104665.47;;;5.91;nan
70053;BME280;57398;52.032;4.376;2023-04-09T04:40:09;104682.81;;;6.03;nan
70053;BME280;57398;52.032;4.376;2023-04-09T04:42:57;104682.63;;;6.06;nan
70053;BME280;57398;52.032;4.376;2023-04-09T04:45:45;104683.34;;;6.08;nan
70053;BME280;57398;52.032;4.376;2023-04-09T04:48:34;104691.22;;;6.07;nan
70053;BME280;57398;52.032;4.376;2023-04-09T04:51:23;104701.34;;;6.10;nan
70053;BME280;57398;52.032;4.376;2023-04-09T04:54:13;104710.44;;;6.16;nan
70053;BME280;57398;52.032;4.376;2023-04-09T04:57:01;104711.03;;;6.21;nan
70053;BME280;57398;52.032;4.376;2023-04-09T04:59:50;104718.47;;;6.25;nan
70053;BME280;57398;52.032;4.376;2023-04-09T05:02:38;104721.69;;;6.29;nan
70053;BME280;57398;52.032;4.376;2023-04-09T05:05:26;104721.59;;;6.31;nan
70053;BME280;57398;52.032;4.376;2023-04-09T05:08:15;104715.44;;;6.33;nan
70053;BME280;57398;52.032;4.376;2023-04-09T05:11:03;104716.03;;;6.37;nan
70053;BME280;57398;52.032;4.376;2023-04-09T05:13:51;104711.00;;;6.35;nan
70053;BME280;57398;52.032;4.376;2023-04-09T05:16:39;104703.59;;;6.43;nan
70053;BME280;57398;52.032;4.376;2023-04-09T05:19:27;104707.47;;;6.50;nan
70053;BME280;57398;52.032;4.376;2023-04-09T05:22:16;104700.34;;;6.54;nan
70053;BME280;57398;52.032;4.376;2023-04-09T05:25:06;104686.13;;;6.61;nan
70053;BME280;57398;52.032;4.376;2023-04-09T05:27:56;104691.00;;;6.66;nan
70053;BME280;57398;52.032;4.376;2023-04-09T05:30:45;104685.66;;;6.69;nan
70053;BME280;57398;52.032;4.376;2023-04-09T05:33:33;104692.25;;;6.73;nan
70053;BME280;57398;52.032;4.376;2023-04-09T05:36:24;104694.66;;;6.76;nan
70053;BME280;57398;52.032;4.376;2023-04-09T05:39:13;104688.25;;;6.82;nan
70053;BME280;57398;52.032;4.376;2023-04-09T05:42:02;104688.91;;;6.85;nan
70053;BME280;57398;52.032;4.376;2023-04-09T05:44:50;104672.91;;;6.93;nan
70053;BME280;57398;52.032;4.376;2023-04-09T05:47:38;104665.88;;;6.95;nan
70053;BME280;57398;52.032;4.376;2023-04-09T05:50:27;104668.16;;;7.00;nan
70053;BME280;57398;52.032;4.376;2023-04-09T05:53:15;104655.22;;;7.00;nan
70053;BME280;57398;52.032;4.376;2023-04-09T05:56:12;104651.63;;;7.02;nan
70053;BME280;57398;52.032;4.376;2023-04-09T05:59:02;104646.78;;;7.10;nan
70053;BME280;57398;52.032;4.376;2023-04-09T06:01:50;104648.94;;;7.17;nan
70053;BME280;57398;52.032;4.376;2023-04-09T06:04:38;104647.00;;;7.20;nan
70053;BME280;57398;52.032;4.376;2023-04-09T06:07:26;104641.44;;;7.26;nan
70053;BME280;57398;52.032;4.376;2023-04-09T06:10:14;104629.91;;;7.30;nan
70053;BME280;57398;52.032;4.376;2023-04-09T06:13:02;104627.03;;;7.35;nan
70053;BME280;57398;52.032;4.376;2023-04-09T06:15:51;104612.66;;;7.44;nan
70053;BME280;57398;52.032;4.376;2023-04-09T06:18:39;104596.94;;;7.47;nan
70053;BME280;57398;52.032;4.376;2023-04-09T06:21:28;104576.75;;;7.52;nan
70053;BME280;57398;52.032;4.376;2023-04-09T06:24:16;104560.09;;;7.56;nan
70053;BME280;57398;52.032;4.376;2023-04-09T06:27:05;104520.81;;;7.62;nan
70053;BME280;57398;52.032;4.376;2023-04-09T06:29:53;104504.25;;;7.65;nan
70053;BME280;57398;52.032;4.376;2023-04-09T06:32:42;104490.16;;;7.69;nan
70053;BME280;57398;52.032;4.376;2023-04-09T06:35:40;104456.00;;;7.76;nan
70053;BME280;57398;52.032;4.376;2023-04-09T06:38:29;104425.19;;;7.85;nan
70053;BME280;57398;52.032;4.376;2023-04-09T06:41:19;104402.63;;;7.87;nan
70053;BME280;57398;52.032;4.376;2023-04-09T06:44:07;104375.44;;;7.92;nan
70053;BME280;57398;52.032;4.376;2023-04-09T06:46:55;104352.50;;;7.99;nan
70053;BME280;57398;52.032;4.376;2023-04-09T06:49:45;104328.28;;;8.00;nan
70053;BME280;57398;52.032;4.376;2023-04-09T06:52:33;104288.63;;;8.00;nan
70053;BME280;57398;52.032;4.376;2023-04-09T06:55:21;104262.41;;;8.04;nan
70053;BME280;57398;52.032;4.376;2023-04-09T06:58:09;104228.38;;;8.09;nan
70053;BME280;57398;52.032;4.376;2023-04-09T07:00:58;104189.66;;;8.07;nan
70053;BME280;57398;52.032;4.376;2023-04-09T07:03:46;104171.75;;;8.15;nan
70053;BME280;57398;52.032;4.376;2023-04-09T07:06:35;104125.72;;;8.19;nan
70053;BME280;57398;52.032;4.376;2023-04-09T07:09:23;104098.03;;;8.19;nan
70053;BME280;57398;52.032;4.376;2023-04-09T07:12:11;104069.19;;;8.24;nan
70053;BME280;57398;52.032;4.376;2023-04-09T07:15:00;104039.78;;;8.25;nan
70053;BME280;57398;52.032;4.376;2023-04-09T07:17:49;103993.59;;;8.30;nan
70053;BME280;57398;52.032;4.376;2023-04-09T07:20:37;103979.56;;;8.33;nan
70053;BME280;57398;52.032;4.376;2023-04-09T07:23:27;103961.06;;;8.37;nan
70053;BME280;57398;52.032;4.376;2023-04-09T07:26:15;103956.69;;;8.38;nan
70053;BME280;57398;52.032;4.376;2023-04-09T07:29:03;103958.81;;;8.44;nan
70053;BME280;57398;52.032;4.376;2023-04-09T07:31:51;103945.38;;;8.50;nan
70053;BME280;57398;52.032;4.376;2023-04-09T07:34:39;103927.53;;;8.57;nan
70053;BME280;57398;52.032;4.376;2023-04-09T07:37:27;103912.69;;;8.59;nan
70053;BME280;57398;52.032;4.376;2023-04-09T07:40:16;103884.03;;;8.60;nan
70053;BME280;57398;52.032;4.376;2023-04-09T07:43:05;103867.69;;;8.60;nan
70053;BME280;57398;52.032;4.376;2023-04-09T07:45:57;103851.56;;;8.56;nan
70053;BME280;57398;52.032;4.376;2023-04-09T07:48:45;103840.25;;;8.57;nan
70053;BME280;57398;52.032;4.376;2023-04-09T07:51:34;103824.03;;;8.65;nan
70053;BME280;57398;52.032;4.376;2023-04-09T07:54:22;103817.94;;;8.66;nan
70053;BME280;57398;52.032;4.376;2023-04-09T07:57:12;103802.78;;;8.71;nan
70053;BME280;57398;52.032;4.376;2023-04-09T08:00:00;103792.31;;;8.73;nan
70053;BME280;57398;52.032;4.376;2023-04-09T08:02:49;103777.00;;;8.79;nan
70053;BME280;57398;52.032;4.376;2023-04-09T08:05:38;103761.88;;;8.75;nan
70053;BME280;57398;52.032;4.376;2023-04-09T08:08:26;103750.69;;;8.84;nan
70053;BME280;57398;52.032;4.376;2023-04-09T08:11:17;103746.19;;;8.86;nan
70053;BME280;57398;52.032;4.376;2023-04-09T08:14:12;103736.50;;;8.88;nan
70053;BME280;57398;52.032;4.376;2023-04-09T08:17:00;103728.91;;;8.87;nan
70053;BME280;57398;52.032;4.376;2023-04-09T08:19:48;103710.88;;;8.85;nan
70053;BME280;57398;52.032;4.376;2023-04-09T08:22:37;103708.44;;;8.93;nan
70053;BME280;57398;52.032;4.376;2023-04-09T08:25:26;103700.25;;;8.98;nan
70053;BME280;57398;52.032;4.376;2023-04-09T08:28:15;103692.59;;;8.96;nan
70053;BME280;57398;52.032;4.376;2023-04-09T08:31:04;103683.84;;;8.97;nan
70053;BME280;57398;52.032;4.376;2023-04-09T08:33:53;103688.78;;;9.00;nan
70053;BME280;57398;52.032;4.376;2023-04-09T08:36:44;103685.50;;;8.98;nan
70053;BME280;57398;52.032;4.376;2023-04-09T08:39:35;103672.13;;;8.93;nan
70053;BME280;57398;52.032;4.376;2023-04-09T08:42:29;103673.19;;;8.91;nan
70053;BME280;57398;52.032;4.376;2023-04-09T08:45:18;103673.75;;;9.04;nan
70053;BME280;57398;52.032;4.376;2023-04-09T08:48:08;103669.66;;;9.01;nan
70053;BME280;57398;52.032;4.376;2023-04-09T08:50:57;103667.75;;;9.04;nan
70053;BME280;57398;52.032;4.376;2023-04-09T08:53:45;103657.50;;;9.12;nan
70053;BME280;57398;52.032;4.376;2023-04-09T08:56:34;103664.59;;;9.19;nan
70053;BME280;57398;52.032;4.376;2023-04-09T08:59:23;103666.09;;;9.22;nan
70053;BME280;57398;52.032;4.376;2023-04-09T09:02:11;103647.53;;;9.17;nan
70053;BME280;57398;52.032;4.376;2023-04-09T09:05:01;103649.56;;;9.23;nan
70053;BME280;57398;52.032;4.376;2023-04-09T09:07:52;103646.69;;;9.26;nan
70053;BME280;57398;52.032;4.376;2023-04-09T09:10:42;103635.94;;;9.21;nan
70053;BME280;57398;52.032;4.376;2023-04-09T09:13:30;103630.22;;;9.08;nan
70053;BME280;57398;52.032;4.376;2023-04-09T09:16:18;103629.66;;;9.14;nan
70053;BME280;57398;52.032;4.376;2023-04-09T09:19:08;103624.06;;;9.09;nan
70053;BME280;57398;52.032;4.376;2023-04-09T09:22:00;103625.69;;;9.19;nan
70053;BME280;57398;52.032;4.376;2023-04-09T09:24:49;103616.50;;;9.25;nan
70053;BME280;57398;52.032;4.376;2023-04-09T09:27:38;103617.47;;;9.24;nan
70053;BME280;57398;52.032;4.376;2023-04-09T09:30:26;103607.16;;;9.14;nan
70053;BME280;57398;52.032;4.376;2023-04-09T09:33:14;103611.06;;;9.28;nan
70053;BME280;57398;52.032;4.376;2023-04-09T09:36:03;103605.31;;;9.25;nan
70053;BME280;57398;52.032;4.376;2023-04-09T09:38:54;103601.06;;;9.33;nan
70053;BME280;57398;52.032;4.376;2023-04-09T09:41:43;103596.00;;;9.32;nan
70053;BME280;57398;52.032;4.376;2023-04-09T09:44:33;103584.06;;;9.21;nan
70053;BME280;57398;52.032;4.376;2023-04-09T09:47:22;103574.25;;;9.15;nan
70053;BME280;57398;52.032;4.376;2023-04-09T09:50:11;103574.34;;;9.23;nan
70053;BME280;57398;52.032;4.376;2023-04-09T09:53:02;103574.75;;;9.28;nan
70053;BME280;57398;52.032;4.376;2023-04-09T09:55:54;103563.69;;;9.26;nan
70053;BME280;57398;52.032;4.376;2023-04-09T09:58:48;103555.19;;;9.34;nan
70053;BME280;57398;52.032;4.376;2023-04-09T10:01:40;103548.56;;;9.49;nan
70053;BME280;57398;52.032;4.376;2023-04-09T10:04:32;103551.03;;;9.51;nan
70053;BME280;57398;52.032;4.376;2023-04-09T10:07:21;103548.03;;;9.46;nan
70053;BME280;57398;52.032;4.376;2023-04-09T10:10:10;103548.38;;;9.60;nan
70053;BME280;57398;52.032;4.376;2023-04-09T10:12:59;103549.50;;;9.58;nan
70053;BME280;57398;52.032;4.376;2023-04-09T10:15:48;103547.50;;;9.70;nan
70053;BME280;57398;52.032;4.376;2023-04-09T10:18:37;103537.75;;;9.81;nan
70053;BME280;57398;52.032;4.376;2023-04-09T10:21:33;103539.09;;;9.85;nan
70053;BME280;57398;52.032;4.376;2023-04-09T10:24:25;103522.09;;;9.91;nan
70053;BME280;57398;52.032;4.376;2023-04-09T10:27:15;103508.81;;;9.76;nan
70053;BME280;57398;52.032;4.376;2023-04-09T10:30:06;103504.28;;;9.78;nan
70053;BME280;57398;52.032;4.376;2023-04-09T10:33:07;103504.28;;;9.96;nan
70053;BME280;57398;52.032;4.376;2023-04-09T10:35:59;103502.72;;;10.21;nan
70053;BME280;57398;52.032;4.376;2023-04-09T10:38:47;103489.81;;;10.12;nan
70053;BME280;57398;52.032;4.376;2023-04-09T10:41:37;103498.47;;;10.56;nan
70053;BME280;57398;52.032;4.376;2023-04-09T10:44:26;103501.25;;;10.89;nan
70053;BME280;57398;52.032;4.376;2023-04-09T10:47:30;103490.59;;;11.00;nan
70053;BME280;57398;52.032;4.376;2023-04-09T10:50:21;103484.38;;;11.36;nan
70053;BME280;57398;52.032;4.376;2023-04-09T10:53:29;103487.53;;;11.72;nan
70053;BME280;57398;52.032;4.376;2023-04-09T10:56:18;103472.19;;;11.44;nan
70053;BME280;57398;52.032;4.376;2023-04-09T10:59:07;103476.22;;;11.89;nan
70053;BME280;57398;52.032;4.376;2023-04-09T11:01:55;103468.09;;;12.01;nan
70053;BME280;57398;52.032;4.376;2023-04-09T11:04:50;103472.97;;;12.12;nan
70053;BME280;57398;52.032;4.376;2023-04-09T11:07:52;103458.31;;;11.94;nan
70053;BME280;57398;52.032;4.376;2023-04-09T11:10:42;103458.63;;;12.08;nan
70053;BME280;57398;52.032;4.376;2023-04-09T11:13:32;103451.97;;;11.89;nan
70053;BME280;57398;52.032;4.376;2023-04-09T11:16:22;103459.59;;;12.23;nan
70053;BME280;57398;52.032;4.376;2023-04-09T11:19:12;103459.88;;;12.45;nan
70053;BME280;57398;52.032;4.376;2023-04-09T11:22:03;103450.56;;;12.50;nan
70053;BME280;57398;52.032;4.376;2023-04-09T11:24:52;103444.56;;;12.50;nan
70053;BME280;57398;52.032;4.376;2023-04-09T11:27:43;103454.50;;;12.94;nan
70053;BME280;57398;52.032;4.376;2023-04-09T11:30:33;103442.16;;;12.88;nan
70053;BME280;57398;52.032;4.376;2023-04-09T11:33:21;103445.00;;;13.09;nan
70053;BME280;57398;52.032;4.376;2023-04-09T11:36:09;103438.81;;;12.63;nan
70053;BME280;57398;52.032;4.376;2023-04-09T11:39:01;103437.22;;;13.32;nan
70053;BME280;57398;52.032;4.376;2023-04-09T11:41:49;103444.22;;;13.63;nan
70053;BME280;57398;52.032;4.376;2023-04-09T11:44:37;103449.44;;;13.86;nan
70053;BME280;57398;52.032;4.376;2023-04-09T11:47:26;103441.91;;;13.83;nan
70053;BME280;57398;52.032;4.376;2023-04-09T11:50:15;103437.22;;;13.55;nan
70053;BME280;57398;52.032;4.376;2023-04-09T11:53:14;103436.94;;;13.50;nan
70053;BME280;57398;52.032;4.376;2023-04-09T11:56:04;103427.44;;;13.26;nan
70053;BME280;57398;52.032;4.376;2023-04-09T11:58:53;103427.38;;;13.66;nan
70053;BME280;57398;52.032;4.376;2023-04-09T12:01:48;103439.03;;;14.16;nan
70053;BME280;57398;52.032;4.376;2023-04-09T12:04:36;103440.44;;;14.03;nan
70053;BME280;57398;52.032;4.376;2023-04-09T12:07:31;103440.00;;;14.00;nan
70053;BME280;57398;52.032;4.376;2023-04-09T12:10:25;103432.88;;;14.09;nan
70053;BME280;57398;52.032;4.376;2023-04-09T12:13:15;103430.66;;;13.82;nan
70053;BME280;57398;52.032;4.376;2023-04-09T12:16:04;103421.94;;;13.90;nan
70053;BME280;57398;52.032;4.376;2023-04-09T12:18:52;103427.25;;;13.82;nan
70053;BME280;57398;52.032;4.376;2023-04-09T12:21:45;103428.13;;;14.12;nan
70053;BME280;57398;52.032;4.376;2023-04-09T12:24:33;103435.09;;;14.35;nan
70053;BME280;57398;52.032;4.376;2023-04-09T12:27:21;103436.34;;;14.39;nan
70053;BME280;57398;52.032;4.376;2023-04-09T12:30:11;103432.34;;;14.43;nan
70053;BME280;57398;52.032;4.376;2023-04-09T12:33:00;103438.44;;;14.58;nan
70053;BME280;57398;52.032;4.376;2023-04-09T12:35:48;103424.47;;;13.98;nan
70053;BME280;57398;52.032;4.376;2023-04-09T12:38:37;103428.31;;;14.40;nan
70053;BME280;57398;52.032;4.376;2023-04-09T12:41:25;103426.81;;;14.61;nan
70053;BME280;57398;52.032;4.376;2023-04-09T12:44:14;103429.69;;;15.39;nan
70053;BME280;57398;52.032;4.376;2023-04-09T12:47:03;103453.41;;;15.52;nan
70053;BME280;57398;52.032;4.376;2023-04-09T12:49:52;103431.19;;;15.05;nan
70053;BME280;57398;52.032;4.376;2023-04-09T12:52:41;103436.75;;;15.38;nan
70053;BME280;57398;52.032;4.376;2023-04-09T12:55:29;103421.09;;;15.45;nan
70053;BME280;57398;52.032;4.376;2023-04-09T12:58:17;103389.34;;;15.33;nan
70053;BME280;57398;52.032;4.376;2023-04-09T13:01:05;103388.13;;;14.93;nan
70053;BME280;57398;52.032;4.376;2023-04-09T13:03:55;103414.22;;;15.22;nan
70053;BME280;57398;52.032;4.376;2023-04-09T13:06:43;103401.81;;;15.10;nan
70053;BME280;57398;52.032;4.376;2023-04-09T13:09:32;103393.44;;;15.21;nan
70053;BME280;57398;52.032;4.376;2023-04-09T13:12:21;103398.03;;;15.34;nan
70053;BME280;57398;52.032;4.376;2023-04-09T13:15:10;103399.03;;;15.33;nan
70053;BME280;57398;52.032;4.376;2023-04-09T13:17:58;103395.34;;;15.27;nan
70053;BME280;57398;52.032;4.376;2023-04-09T13:20:48;103375.47;;;15.33;nan
70053;BME280;57398;52.032;4.376;2023-04-09T13:23:36;103361.97;;;14.93;nan
70053;BME280;57398;52.032;4.376;2023-04-09T13:26:24;103375.22;;;14.91;nan
70053;BME280;57398;52.032;4.376;2023-04-09T13:29:12;103370.81;;;14.92;nan
70053;BME280;57398;52.032;4.376;2023-04-09T13:32:01;103361.09;;;15.07;nan
70053;BME280;57398;52.032;4.376;2023-04-09T13:34:52;103324.25;;;15.30;nan
70053;BME280;57398;52.032;4.376;2023-04-09T13:37:43;103332.06;;;14.65;nan
70053;BME280;57398;52.032;4.376;2023-04-09T13:40:31;103338.53;;;14.84;nan
70053;BME280;57398;52.032;4.376;2023-04-09T13:43:19;103334.50;;;15.03;nan
70053;BME280;57398;52.032;4.376;2023-04-09T13:46:10;103330.38;;;15.16;nan
70053;BME280;57398;52.032;4.376;2023-04-09T13:48:58;103305.19;;;15.15;nan
70053;BME280;57398;52.032;4.376;2023-04-09T13:51:47;103289.16;;;15.24;nan
70053;BME280;57398;52.032;4.376;2023-04-09T13:54:37;103274.66;;;15.22;nan
70053;BME280;57398;52.032;4.376;2023-04-09T13:57:25;103262.34;;;15.44;nan
70053;BME280;57398;52.032;4.376;2023-04-09T14:00:13;103161.22;;;15.49;nan
70053;BME280;57398;52.032;4.376;2023-04-09T14:03:02;103135.44;;;15.53;nan
70053;BME280;57398;52.032;4.376;2023-04-09T14:05:51;103124.09;;;15.81;nan
70053;BME280;57398;52.032;4.376;2023-04-09T14:08:39;103074.34;;;16.27;nan
70053;BME280;57398;52.032;4.376;2023-04-09T14:11:28;102989.41;;;16.35;nan
70053;BME280;57398;52.032;4.376;2023-04-09T14:14:16;102963.06;;;16.88;nan
70053;BME280;57398;52.032;4.376;2023-04-09T14:17:05;102947.69;;;16.13;nan
70053;BME280;57398;52.032;4.376;2023-04-09T14:19:54;102977.53;;;15.86;nan
70053;BME280;57398;52.032;4.376;2023-04-09T14:22:43;102978.34;;;16.06;nan
70053;BME280;57398;52.032;4.376;2023-04-09T14:25:34;102962.19;;;16.23;nan
70053;BME280;57398;52.032;4.376;2023-04-09T14:28:30;102946.25;;;16.24;nan
70053;BME280;57398;52.032;4.376;2023-04-09T14:31:18;102818.13;;;16.28;nan
70053;BME280;57398;52.032;4.376;2023-04-09T14:34:07;102737.56;;;16.42;nan
70053;BME280;57398;52.032;4.376;2023-04-09T14:36:55;102764.81;;;15.96;nan
70053;BME280;57398;52.032;4.376;2023-04-09T14:39:43;102789.81;;;15.91;nan
70053;BME280;57398;52.032;4.376;2023-04-09T14:42:32;102805.06;;;16.15;nan
70053;BME280;57398;52.032;4.376;2023-04-09T14:45:22;102806.16;;;15.94;nan
70053;BME280;57398;52.032;4.376;2023-04-09T14:48:10;102803.47;;;16.13;nan
70053;BME280;57398;52.032;4.376;2023-04-09T14:50:58;102801.84;;;16.12;nan
70053;BME280;57398;52.032;4.376;2023-04-09T14:53:46;102809.19;;;15.90;nan
70053;BME280;57398;52.032;4.376;2023-04-09T14:56:34;102809.59;;;15.61;nan
70053;BME280;57398;52.032;4.376;2023-04-09T14:59:22;102801.75;;;15.41;nan
70053;BME280;57398;52.032;4.376;2023-04-09T15:02:13;102808.00;;;15.40;nan
70053;BME280;57398;52.032;4.376;2023-04-09T15:05:02;102813.03;;;15.61;nan
70053;BME280;57398;52.032;4.376;2023-04-09T15:07:51;102794.50;;;15.63;nan
70053;BME280;57398;52.032;4.376;2023-04-09T15:10:39;102790.06;;;15.70;nan
70053;BME280;57398;52.032;4.376;2023-04-09T15:13:27;102766.91;;;15.54;nan
70053;BME280;57398;52.032;4.376;2023-04-09T15:16:20;102754.41;;;15.49;nan
70053;BME280;57398;52.032;4.376;2023-04-09T15:19:10;102767.47;;;15.69;nan
70053;BME280;57398;52.032;4.376;2023-04-09T15:21:58;102774.94;;;15.65;nan